20 a 30/4 - Tren de vaguadas, PP abundantes Cordillera C y S. Lluvias y tormentas NEA y C-E.

Avatar de Usuario
Diecha
Mensajes: 20023
Registrado: Jue Ago 25, 2011 9:31 pm
Ubicación: Lomas de Zamora

Re: 20 a 30/4 - Tren de vaguadas, PP abundantes Cordillera C y S. Lluvias y tormentas NEA y C-E.

Mensaje por Diecha »

Buenas.

Imagen

Imagen
Spoiler
Imagen
Imagen
Imagen
Imagen
Imagen
Imagen
Imagen
Imagen
Imagen
Imagen
Imagen
Avatar de Usuario
NicodWilde
Mensajes: 17390
Registrado: Mié Ago 01, 2012 7:34 pm
Ubicación: Wilde, Buenos Aires

Re: 20 a 30/4 - Tren de vaguadas, PP abundantes Cordillera C y S. Lluvias y tormentas NEA y C-E.

Mensaje por NicodWilde »

13.8° el OCBA con 34 % (-1.9 Td). Subió muy poco después de las 11, a puro sol, con poco viento/baja humedad, tremendo. Está de junio

En Quilmes la temperatura subió algo más (14.5) pero muy fresco, frío diría para esta hora.
Última edición por NicodWilde el Vie Abr 29, 2022 1:42 pm, editado 1 vez en total.
No necesito que sea fácil, sólo que sea posible.

Nico
Avatar de Usuario
Diecha
Mensajes: 20023
Registrado: Jue Ago 25, 2011 9:31 pm
Ubicación: Lomas de Zamora

Re: 20 a 30/4 - Tren de vaguadas, PP abundantes Cordillera C y S. Lluvias y tormentas NEA y C-E.

Mensaje por Diecha »

Avatar de Usuario
Wyoming
Mensajes: 2079
Registrado: Jue Jun 22, 2017 12:15 pm
Ubicación: Alto Valle/RN

Re: 20 a 30/4 - Tren de vaguadas, PP abundantes Cordillera C y S. Lluvias y tormentas NEA y C-E.

Mensaje por Wyoming »

Diecha escribió: Vie Abr 29, 2022 1:42 pm
Spoiler
De acuerdo al SMN, los -6,8°C de hoy de SAO son récord para la temperatura más baja en abril (previo -4°C en la entrada fría de abril de 2016) Pensé que iba a ser más bajo el valor previo jaja.

16,1°C la actual. Corre una brisa del este y apenas hay nubes.
Previously known as MarianoStorm.
Pasillo de los Tornados - Pasado y presente.
Me gustan los idiomas.
Avatar de Usuario
Diecha
Mensajes: 20023
Registrado: Jue Ago 25, 2011 9:31 pm
Ubicación: Lomas de Zamora

Re: 20 a 30/4 - Tren de vaguadas, PP abundantes Cordillera C y S. Lluvias y tormentas NEA y C-E.

Mensaje por Diecha »



Imagen

- Tandil 14 hs: SAZM 291700Z 23005KT 9999 SCT035 BKN042 14/05 Q1026
- Mar del Plata 14 hs: SAZM 291700Z 23005KT 9999 SCT035 BKN042 14/05 Q1026

Imagen
Última edición por Diecha el Vie Abr 29, 2022 2:36 pm, editado 1 vez en total.
Avatar de Usuario
Ale de Castelar
Mensajes: 32510
Registrado: Sab Mar 03, 2012 12:25 pm
Ubicación: Caballito

Re: 20 a 30/4 - Tren de vaguadas, PP abundantes Cordillera C y S. Lluvias y tormentas NEA y C-E.

Mensaje por Ale de Castelar »

Dia hiper despejado y muy seco.
En el sol se siente agradable pero en la sombra se siente fresco.
Avatar de Usuario
Diecha
Mensajes: 20023
Registrado: Jue Ago 25, 2011 9:31 pm
Ubicación: Lomas de Zamora

Re: 20 a 30/4 - Tren de vaguadas, PP abundantes Cordillera C y S. Lluvias y tormentas NEA y C-E.

Mensaje por Diecha »

Avatar de Usuario
Ernest
Mensajes: 16132
Registrado: Vie Jul 17, 2009 10:54 pm
Ubicación: Balvanera, CABA

Re: 20 a 30/4 - Tren de vaguadas, PP abundantes Cordillera C y S. Lluvias y tormentas NEA y C-E.

Mensaje por Ernest »

T 13,2 / Th 5,9 / Td -7,4 / HR 23 % en mi ventana de Once.
Did you want to talk about the weather, or were you just making chitchat?

Twitter: @ErnestoAtmoII
Avatar de Usuario
Diecha
Mensajes: 20023
Registrado: Jue Ago 25, 2011 9:31 pm
Ubicación: Lomas de Zamora

Re: 20 a 30/4 - Tren de vaguadas, PP abundantes Cordillera C y S. Lluvias y tormentas NEA y C-E.

Mensaje por Diecha »



Imagen

- Tandil 17 hs: SAZT 292000Z 16004KT 9999 FEW030 12/M01 Q1026
- Mar del Plata 17 hs: SAZM 292000Z 23006KT 9999 SCT040 13/05 Q1025

Imagen
Avatar de Usuario
Ezequiel_Kees
Mensajes: 454
Registrado: Vie Mar 18, 2022 6:18 pm
Ubicación: Mar del Tuyú, Provincia de Buenos Aires

Re: 20 a 30/4 - Tren de vaguadas, PP abundantes Cordillera C y S. Lluvias y tormentas NEA y C-E.

Mensaje por Ezequiel_Kees »

Ya hace frio acá
Anteriormente como Ezequiel95 y Ezequiel1995